LFLS/GNB METAR and TAF weather

Enter ICAO airport designator
Station Type Date Time Source
LFLS METAR 2021/05/13 00:30 UTC NOAA

LFLS 130030Z AUTO 10003KT 9999 BKN060 OVC074 09/07 Q1011


Station Type Date Time Source
LFLS Decoded METAR 2021/05/13 00:30 UTC NOAA

Grenoble / St. Geoirs, France (LFLS) 45-22N 005-20E 386M
May 12, 2021 - 08:30 PM EDT / 2021.05.13 0030 UTC
Wind: from the E (100 degrees) at 3 MPH (3 KT):0
Visibility: greater than 7 mile(s):0
Sky conditions: overcast
Temperature: 48 F (9 C)
Dew Point: 44 F (7 C)
Relative Humidity: 87%
Pressure (altimeter): 29.85 in. Hg (1011 hPa)
ob: LFLS 130030Z AUTO 10003KT 9999 BKN060 OVC074 09/07 Q1011
cycle: 0

Station Type Date Time Source
LFLS TAF 2021/05/12 19:07 UTC NOAA

TAF LFLS 121900Z 1219/1315 CNL

Example: see airport list